sensor_id;sensor_type;location;lat;lon;timestamp;temperature;humidity
74869;DHT22;63419;42.262;12.210;2023-04-24T00:01:17;12.50;99.90
74869;DHT22;63419;42.262;12.210;2023-04-24T00:03:44;12.50;99.90
74869;DHT22;63419;42.262;12.210;2023-04-24T00:06:11;12.50;99.90
74869;DHT22;63419;42.262;12.210;2023-04-24T00:08:38;12.50;99.90
74869;DHT22;63419;42.262;12.210;2023-04-24T00:11:05;12.50;99.90
74869;DHT22;63419;42.262;12.210;2023-04-24T00:13:32;12.50;99.90
74869;DHT22;63419;42.262;12.210;2023-04-24T00:15:59;12.50;99.90
74869;DHT22;63419;42.262;12.210;2023-04-24T00:18:26;12.50;99.90
74869;DHT22;63419;42.262;12.210;2023-04-24T00:20:53;12.50;99.90
74869;DHT22;63419;42.262;12.210;2023-04-24T00:23:20;12.50;99.90
74869;DHT22;63419;42.262;12.210;2023-04-24T00:25:47;12.50;99.90
74869;DHT22;63419;42.262;12.210;2023-04-24T00:28:14;12.50;99.90
74869;DHT22;63419;42.262;12.210;2023-04-24T00:30:41;12.40;99.90
74869;DHT22;63419;42.262;12.210;2023-04-24T00:33:08;12.50;99.90
74869;DHT22;63419;42.262;12.210;2023-04-24T00:35:35;12.50;99.90
74869;DHT22;63419;42.262;12.210;2023-04-24T00:38:02;12.50;99.90
74869;DHT22;63419;42.262;12.210;2023-04-24T00:40:29;12.40;99.90
74869;DHT22;63419;42.262;12.210;2023-04-24T00:42:56;12.40;99.90
74869;DHT22;63419;42.262;12.210;2023-04-24T00:45:23;12.40;99.90
74869;DHT22;63419;42.262;12.210;2023-04-24T00:47:52;12.40;99.90
74869;DHT22;63419;42.262;12.210;2023-04-24T00:50:21;12.40;99.90
74869;DHT22;63419;42.262;12.210;2023-04-24T00:52:48;12.40;99.90
74869;DHT22;63419;42.262;12.210;2023-04-24T00:55:15;12.30;99.90
74869;DHT22;63419;42.262;12.210;2023-04-24T00:57:44;12.30;99.90
74869;DHT22;63419;42.262;12.210;2023-04-24T01:00:12;12.40;99.90
74869;DHT22;63419;42.262;12.210;2023-04-24T01:02:40;12.40;99.90
74869;DHT22;63419;42.262;12.210;2023-04-24T01:05:12;12.40;99.90
74869;DHT22;63419;42.262;12.210;2023-04-24T01:07:41;12.50;99.90
74869;DHT22;63419;42.262;12.210;2023-04-24T01:10:11;12.40;99.90
74869;DHT22;63419;42.262;12.210;2023-04-24T01:12:39;12.40;99.90
74869;DHT22;63419;42.262;12.210;2023-04-24T01:15:07;12.30;99.90
74869;DHT22;63419;42.262;12.210;2023-04-24T01:17:34;12.30;99.90
74869;DHT22;63419;42.262;12.210;2023-04-24T01:20:01;12.40;99.90
74869;DHT22;63419;42.262;12.210;2023-04-24T01:22:33;12.40;99.90
74869;DHT22;63419;42.262;12.210;2023-04-24T01:25:01;12.30;99.90
74869;DHT22;63419;42.262;12.210;2023-04-24T01:27:29;12.30;99.90
74869;DHT22;63419;42.262;12.210;2023-04-24T01:29:56;12.30;99.90
74869;DHT22;63419;42.262;12.210;2023-04-24T01:32:24;12.20;99.90
74869;DHT22;63419;42.262;12.210;2023-04-24T01:34:51;12.20;99.90
74869;DHT22;63419;42.262;12.210;2023-04-24T01:37:18;12.20;99.90
74869;DHT22;63419;42.262;12.210;2023-04-24T01:39:46;12.20;99.90
74869;DHT22;63419;42.262;12.210;2023-04-24T01:42:13;12.30;99.90
74869;DHT22;63419;42.262;12.210;2023-04-24T01:44:40;12.30;99.90
74869;DHT22;63419;42.262;12.210;2023-04-24T01:47:07;12.30;99.90
74869;DHT22;63419;42.262;12.210;2023-04-24T01:49:34;12.30;99.90
74869;DHT22;63419;42.262;12.210;2023-04-24T01:52:01;12.20;99.90
74869;DHT22;63419;42.262;12.210;2023-04-24T01:54:28;12.20;99.90
74869;DHT22;63419;42.262;12.210;2023-04-24T01:56:55;12.20;99.90
74869;DHT22;63419;42.262;12.210;2023-04-24T01:59:23;12.20;99.90
74869;DHT22;63419;42.262;12.210;2023-04-24T02:01:51;12.20;99.90
74869;DHT22;63419;42.262;12.210;2023-04-24T02:04:18;12.20;99.90
74869;DHT22;63419;42.262;12.210;2023-04-24T02:06:46;12.30;99.90
74869;DHT22;63419;42.262;12.210;2023-04-24T02:09:13;12.30;99.90
74869;DHT22;63419;42.262;12.210;2023-04-24T02:11:40;12.30;99.90
74869;DHT22;63419;42.262;12.210;2023-04-24T02:14:07;12.30;99.90
74869;DHT22;63419;42.262;12.210;2023-04-24T02:16:33;12.30;99.90
74869;DHT22;63419;42.262;12.210;2023-04-24T02:19:03;12.30;99.90
74869;DHT22;63419;42.262;12.210;2023-04-24T02:21:30;12.30;99.90
74869;DHT22;63419;42.262;12.210;2023-04-24T02:23:57;12.30;99.90
74869;DHT22;63419;42.262;12.210;2023-04-24T02:26:24;12.30;99.90
74869;DHT22;63419;42.262;12.210;2023-04-24T02:28:51;12.30;99.90
74869;DHT22;63419;42.262;12.210;2023-04-24T02:31:18;12.30;99.90
74869;DHT22;63419;42.262;12.210;2023-04-24T02:33:45;12.30;99.90
74869;DHT22;63419;42.262;12.210;2023-04-24T02:36:12;12.20;99.90
74869;DHT22;63419;42.262;12.210;2023-04-24T02:38:39;12.30;99.90
74869;DHT22;63419;42.262;12.210;2023-04-24T02:41:06;12.20;99.90
74869;DHT22;63419;42.262;12.210;2023-04-24T02:43:33;12.20;99.90
74869;DHT22;63419;42.262;12.210;2023-04-24T02:46:00;12.30;99.90
74869;DHT22;63419;42.262;12.210;2023-04-24T02:48:27;12.20;99.90
74869;DHT22;63419;42.262;12.210;2023-04-24T02:50:55;12.20;99.90
74869;DHT22;63419;42.262;12.210;2023-04-24T02:53:22;12.20;99.90
74869;DHT22;63419;42.262;12.210;2023-04-24T02:55:49;12.20;99.90
74869;DHT22;63419;42.262;12.210;2023-04-24T02:58:17;12.30;99.90
74869;DHT22;63419;42.262;12.210;2023-04-24T03:00:44;12.30;99.90
74869;DHT22;63419;42.262;12.210;2023-04-24T03:03:11;12.30;99.90
74869;DHT22;63419;42.262;12.210;2023-04-24T03:05:38;12.20;99.90
74869;DHT22;63419;42.262;12.210;2023-04-24T03:08:05;12.20;99.90
74869;DHT22;63419;42.262;12.210;2023-04-24T03:10:32;12.20;99.90
74869;DHT22;63419;42.262;12.210;2023-04-24T03:12:59;12.20;99.90
74869;DHT22;63419;42.262;12.210;2023-04-24T03:15:26;12.20;99.90
74869;DHT22;63419;42.262;12.210;2023-04-24T03:17:54;12.20;99.90
74869;DHT22;63419;42.262;12.210;2023-04-24T03:20:22;12.20;99.90
74869;DHT22;63419;42.262;12.210;2023-04-24T03:22:49;12.10;99.90
74869;DHT22;63419;42.262;12.210;2023-04-24T03:25:16;12.20;99.90
74869;DHT22;63419;42.262;12.210;2023-04-24T03:27:43;12.10;99.90
74869;DHT22;63419;42.262;12.210;2023-04-24T03:30:10;12.10;99.90
74869;DHT22;63419;42.262;12.210;2023-04-24T03:32:37;12.10;99.90
74869;DHT22;63419;42.262;12.210;2023-04-24T03:35:08;12.10;99.90
74869;DHT22;63419;42.262;12.210;2023-04-24T03:37:35;12.20;99.90
74869;DHT22;63419;42.262;12.210;2023-04-24T03:40:02;12.10;99.90
74869;DHT22;63419;42.262;12.210;2023-04-24T03:42:30;12.10;99.90
74869;DHT22;63419;42.262;12.210;2023-04-24T03:44:56;12.10;99.90
74869;DHT22;63419;42.262;12.210;2023-04-24T03:47:23;12.20;99.90
74869;DHT22;63419;42.262;12.210;2023-04-24T03:49:51;12.10;99.90
74869;DHT22;63419;42.262;12.210;2023-04-24T03:52:18;12.10;99.90
74869;DHT22;63419;42.262;12.210;2023-04-24T03:54:45;12.10;99.90
74869;DHT22;63419;42.262;12.210;2023-04-24T03:57:12;12.00;99.90
74869;DHT22;63419;42.262;12.210;2023-04-24T03:59:39;12.00;99.90
74869;DHT22;63419;42.262;12.210;2023-04-24T04:02:06;12.00;99.90
74869;DHT22;63419;42.262;12.210;2023-04-24T04:04:34;12.00;99.90
74869;DHT22;63419;42.262;12.210;2023-04-24T04:07:01;12.00;99.90
74869;DHT22;63419;42.262;12.210;2023-04-24T04:09:29;12.00;99.90
74869;DHT22;63419;42.262;12.210;2023-04-24T04:11:56;12.00;99.90
74869;DHT22;63419;42.262;12.210;2023-04-24T04:14:24;12.00;99.90
74869;DHT22;63419;42.262;12.210;2023-04-24T04:16:51;12.00;99.90
74869;DHT22;63419;42.262;12.210;2023-04-24T04:19:20;12.00;99.90
74869;DHT22;63419;42.262;12.210;2023-04-24T04:21:47;12.00;99.90
74869;DHT22;63419;42.262;12.210;2023-04-24T04:24:19;11.90;99.90
74869;DHT22;63419;42.262;12.210;2023-04-24T04:26:51;11.90;99.90
74869;DHT22;63419;42.262;12.210;2023-04-24T04:29:18;11.90;99.90
74869;DHT22;63419;42.262;12.210;2023-04-24T04:31:45;12.00;99.90
74869;DHT22;63419;42.262;12.210;2023-04-24T04:34:13;12.00;99.90
74869;DHT22;63419;42.262;12.210;2023-04-24T04:36:41;12.00;99.90
74869;DHT22;63419;42.262;12.210;2023-04-24T04:39:08;12.00;99.90
74869;DHT22;63419;42.262;12.210;2023-04-24T04:41:35;12.00;99.90
74869;DHT22;63419;42.262;12.210;2023-04-24T04:44:02;12.00;99.90
74869;DHT22;63419;42.262;12.210;2023-04-24T04:46:31;11.90;99.90
74869;DHT22;63419;42.262;12.210;2023-04-24T04:49:04;12.00;99.90
74869;DHT22;63419;42.262;12.210;2023-04-24T04:51:31;12.00;99.90
74869;DHT22;63419;42.262;12.210;2023-04-24T04:53:58;11.90;99.90
74869;DHT22;63419;42.262;12.210;2023-04-24T04:56:25;11.90;99.90
74869;DHT22;63419;42.262;12.210;2023-04-24T04:58:52;11.80;99.90
74869;DHT22;63419;42.262;12.210;2023-04-24T05:01:19;11.80;99.90
74869;DHT22;63419;42.262;12.210;2023-04-24T05:03:46;11.80;99.90
74869;DHT22;63419;42.262;12.210;2023-04-24T05:06:14;11.90;99.90
74869;DHT22;63419;42.262;12.210;2023-04-24T05:08:41;11.90;99.90
74869;DHT22;63419;42.262;12.210;2023-04-24T05:11:08;11.90;99.90
74869;DHT22;63419;42.262;12.210;2023-04-24T05:13:35;11.90;99.90
74869;DHT22;63419;42.262;12.210;2023-04-24T05:16:07;11.90;99.90
74869;DHT22;63419;42.262;12.210;2023-04-24T05:18:34;12.00;99.90
74869;DHT22;63419;42.262;12.210;2023-04-24T05:21:01;12.00;99.90
74869;DHT22;63419;42.262;12.210;2023-04-24T05:23:28;12.10;99.90
74869;DHT22;63419;42.262;12.210;2023-04-24T05:25:55;12.00;99.90
74869;DHT22;63419;42.262;12.210;2023-04-24T05:28:22;12.10;99.90
74869;DHT22;63419;42.262;12.210;2023-04-24T05:30:49;12.00;99.90
74869;DHT22;63419;42.262;12.210;2023-04-24T05:33:16;12.10;99.90
74869;DHT22;63419;42.262;12.210;2023-04-24T05:35:43;12.10;99.90
74869;DHT22;63419;42.262;12.210;2023-04-24T05:38:13;12.30;99.90
74869;DHT22;63419;42.262;12.210;2023-04-24T05:40:44;12.50;99.90
74869;DHT22;63419;42.262;12.210;2023-04-24T05:43:12;12.60;99.90
74869;DHT22;63419;42.262;12.210;2023-04-24T05:45:39;12.70;99.90
74869;DHT22;63419;42.262;12.210;2023-04-24T05:48:06;12.80;99.90
74869;DHT22;63419;42.262;12.210;2023-04-24T05:50:33;12.40;99.90
74869;DHT22;63419;42.262;12.210;2023-04-24T05:53:02;12.50;99.90
74869;DHT22;63419;42.262;12.210;2023-04-24T05:55:30;12.40;99.90
74869;DHT22;63419;42.262;12.210;2023-04-24T05:57:57;12.40;99.90
74869;DHT22;63419;42.262;12.210;2023-04-24T06:00:25;12.50;99.90
74869;DHT22;63419;42.262;12.210;2023-04-24T06:02:52;12.60;99.90
74869;DHT22;63419;42.262;12.210;2023-04-24T06:05:20;12.70;99.90
74869;DHT22;63419;42.262;12.210;2023-04-24T06:07:47;12.50;99.90
74869;DHT22;63419;42.262;12.210;2023-04-24T06:10:14;12.50;99.90
74869;DHT22;63419;42.262;12.210;2023-04-24T06:12:42;12.70;99.90
74869;DHT22;63419;42.262;12.210;2023-04-24T06:15:09;12.80;99.90
74869;DHT22;63419;42.262;12.210;2023-04-24T06:17:36;12.70;99.90
74869;DHT22;63419;42.262;12.210;2023-04-24T06:20:04;12.70;99.90
74869;DHT22;63419;42.262;12.210;2023-04-24T06:22:32;12.90;99.90
74869;DHT22;63419;42.262;12.210;2023-04-24T06:24:59;13.00;99.90
74869;DHT22;63419;42.262;12.210;2023-04-24T06:27:28;12.90;99.90
74869;DHT22;63419;42.262;12.210;2023-04-24T06:29:55;12.60;99.90
74869;DHT22;63419;42.262;12.210;2023-04-24T06:32:23;12.80;99.90
74869;DHT22;63419;42.262;12.210;2023-04-24T06:34:51;12.70;99.90
74869;DHT22;63419;42.262;12.210;2023-04-24T06:37:22;12.80;99.90
74869;DHT22;63419;42.262;12.210;2023-04-24T06:39:49;12.50;99.90
74869;DHT22;63419;42.262;12.210;2023-04-24T06:42:16;12.30;99.90
74869;DHT22;63419;42.262;12.210;2023-04-24T06:44:43;12.40;99.90
74869;DHT22;63419;42.262;12.210;2023-04-24T06:47:11;12.40;99.90
74869;DHT22;63419;42.262;12.210;2023-04-24T06:49:40;12.40;99.90
74869;DHT22;63419;42.262;12.210;2023-04-24T06:52:07;12.50;99.90
74869;DHT22;63419;42.262;12.210;2023-04-24T06:54:34;12.40;99.90
74869;DHT22;63419;42.262;12.210;2023-04-24T06:57:01;12.60;99.90
74869;DHT22;63419;42.262;12.210;2023-04-24T06:59:29;12.60;99.90
74869;DHT22;63419;42.262;12.210;2023-04-24T07:01:56;12.90;99.90
74869;DHT22;63419;42.262;12.210;2023-04-24T07:04:23;12.70;99.90
74869;DHT22;63419;42.262;12.210;2023-04-24T07:06:52;12.80;99.90
74869;DHT22;63419;42.262;12.210;2023-04-24T07:09:23;12.80;99.90
74869;DHT22;63419;42.262;12.210;2023-04-24T07:11:51;13.10;99.90
74869;DHT22;63419;42.262;12.210;2023-04-24T07:14:18;12.80;99.90
74869;DHT22;63419;42.262;12.210;2023-04-24T07:16:46;12.80;99.90
74869;DHT22;63419;42.262;12.210;2023-04-24T07:19:13;12.70;99.90
74869;DHT22;63419;42.262;12.210;2023-04-24T07:21:40;12.60;99.90
74869;DHT22;63419;42.262;12.210;2023-04-24T07:26:56;12.60;99.90
74869;DHT22;63419;42.262;12.210;2023-04-24T07:29:23;12.50;99.90
74869;DHT22;63419;42.262;12.210;2023-04-24T07:31:50;12.50;99.90
74869;DHT22;63419;42.262;12.210;2023-04-24T07:34:17;12.50;99.90
74869;DHT22;63419;42.262;12.210;2023-04-24T07:36:44;12.50;99.90
74869;DHT22;63419;42.262;12.210;2023-04-24T07:39:12;12.50;99.90
74869;DHT22;63419;42.262;12.210;2023-04-24T07:41:39;12.80;99.90
74869;DHT22;63419;42.262;12.210;2023-04-24T07:44:06;13.00;99.90
74869;DHT22;63419;42.262;12.210;2023-04-24T07:46:33;12.90;99.90
74869;DHT22;63419;42.262;12.210;2023-04-24T07:49:00;13.20;99.90
74869;DHT22;63419;42.262;12.210;2023-04-24T07:51:40;13.30;99.90
74869;DHT22;63419;42.262;12.210;2023-04-24T07:54:08;13.60;99.90
74869;DHT22;63419;42.262;12.210;2023-04-24T07:56:35;13.60;99.90
74869;DHT22;63419;42.262;12.210;2023-04-24T07:59:06;13.80;99.90
74869;DHT22;63419;42.262;12.210;2023-04-24T08:01:33;13.50;99.90
74869;DHT22;63419;42.262;12.210;2023-04-24T08:04:00;13.60;99.90
74869;DHT22;63419;42.262;12.210;2023-04-24T08:06:27;13.80;99.90
74869;DHT22;63419;42.262;12.210;2023-04-24T08:08:57;13.70;99.90
74869;DHT22;63419;42.262;12.210;2023-04-24T08:11:25;13.90;99.90
74869;DHT22;63419;42.262;12.210;2023-04-24T08:13:52;13.80;99.90
74869;DHT22;63419;42.262;12.210;2023-04-24T08:16:21;13.70;99.90
74869;DHT22;63419;42.262;12.210;2023-04-24T08:18:51;13.60;99.90
74869;DHT22;63419;42.262;12.210;2023-04-24T08:21:18;13.60;99.90
74869;DHT22;63419;42.262;12.210;2023-04-24T08:23:45;13.70;99.90
74869;DHT22;63419;42.262;12.210;2023-04-24T08:26:13;14.00;99.90
74869;DHT22;63419;42.262;12.210;2023-04-24T08:28:40;14.00;99.90
74869;DHT22;63419;42.262;12.210;2023-04-24T08:31:07;13.80;99.90
74869;DHT22;63419;42.262;12.210;2023-04-24T08:33:34;14.30;99.90
74869;DHT22;63419;42.262;12.210;2023-04-24T08:36:02;14.40;99.90
74869;DHT22;63419;42.262;12.210;2023-04-24T08:38:29;14.60;99.90
74869;DHT22;63419;42.262;12.210;2023-04-24T08:41:00;15.00;99.90
74869;DHT22;63419;42.262;12.210;2023-04-24T08:43:27;14.80;99.90
74869;DHT22;63419;42.262;12.210;2023-04-24T08:45:55;15.00;99.90
74869;DHT22;63419;42.262;12.210;2023-04-24T08:48:23;15.10;99.90
74869;DHT22;63419;42.262;12.210;2023-04-24T08:50:58;15.10;99.90
74869;DHT22;63419;42.262;12.210;2023-04-24T08:53:26;14.70;99.90
74869;DHT22;63419;42.262;12.210;2023-04-24T08:55:55;14.80;99.90
74869;DHT22;63419;42.262;12.210;2023-04-24T08:58:25;15.20;99.90
74869;DHT22;63419;42.262;12.210;2023-04-24T09:00:57;15.20;99.90
74869;DHT22;63419;42.262;12.210;2023-04-24T09:03:25;15.10;99.90
74869;DHT22;63419;42.262;12.210;2023-04-24T09:05:55;15.00;99.90
74869;DHT22;63419;42.262;12.210;2023-04-24T09:08:24;15.00;99.90
74869;DHT22;63419;42.262;12.210;2023-04-24T09:10:52;14.80;99.90
74869;DHT22;63419;42.262;12.210;2023-04-24T09:13:19;15.00;99.90
74869;DHT22;63419;42.262;12.210;2023-04-24T09:15:46;15.10;99.90
74869;DHT22;63419;42.262;12.210;2023-04-24T09:18:13;15.80;99.90
74869;DHT22;63419;42.262;12.210;2023-04-24T09:21:03;15.20;99.90
74869;DHT22;63419;42.262;12.210;2023-04-24T09:23:31;15.20;99.90
74869;DHT22;63419;42.262;12.210;2023-04-24T09:25:59;14.90;99.90
74869;DHT22;63419;42.262;12.210;2023-04-24T09:28:39;15.10;99.90
74869;DHT22;63419;42.262;12.210;2023-04-24T09:31:18;14.90;99.90
74869;DHT22;63419;42.262;12.210;2023-04-24T09:34:03;14.90;99.90
74869;DHT22;63419;42.262;12.210;2023-04-24T09:36:39;14.80;99.90
74869;DHT22;63419;42.262;12.210;2023-04-24T09:39:14;14.70;99.90
74869;DHT22;63419;42.262;12.210;2023-04-24T09:41:45;14.50;99.90
74869;DHT22;63419;42.262;12.210;2023-04-24T09:44:19;14.50;99.90
74869;DHT22;63419;42.262;12.210;2023-04-24T09:46:51;14.70;99.90
74869;DHT22;63419;42.262;12.210;2023-04-24T09:49:25;15.10;99.90
74869;DHT22;63419;42.262;12.210;2023-04-24T09:52:05;15.60;99.90
74869;DHT22;63419;42.262;12.210;2023-04-24T09:54:33;15.50;99.90
74869;DHT22;63419;42.262;12.210;2023-04-24T09:57:01;15.40;99.90
74869;DHT22;63419;42.262;12.210;2023-04-24T09:59:29;15.70;99.90
74869;DHT22;63419;42.262;12.210;2023-04-24T10:01:56;16.10;99.90
74869;DHT22;63419;42.262;12.210;2023-04-24T10:04:27;16.60;99.90
74869;DHT22;63419;42.262;12.210;2023-04-24T10:06:56;16.60;99.90
74869;DHT22;63419;42.262;12.210;2023-04-24T10:09:25;16.70;99.90
74869;DHT22;63419;42.262;12.210;2023-04-24T10:11:54;16.50;99.90
74869;DHT22;63419;42.262;12.210;2023-04-24T10:14:24;16.40;99.90
74869;DHT22;63419;42.262;12.210;2023-04-24T10:16:53;16.70;99.90
74869;DHT22;63419;42.262;12.210;2023-04-24T10:19:20;16.80;99.90
74869;DHT22;63419;42.262;12.210;2023-04-24T10:21:47;16.30;99.90
74869;DHT22;63419;42.262;12.210;2023-04-24T10:24:16;17.00;99.90
74869;DHT22;63419;42.262;12.210;2023-04-24T10:26:45;16.50;99.90
74869;DHT22;63419;42.262;12.210;2023-04-24T10:29:14;16.90;99.90
74869;DHT22;63419;42.262;12.210;2023-04-24T10:31:42;17.50;99.90
74869;DHT22;63419;42.262;12.210;2023-04-24T10:34:13;17.50;99.90
74869;DHT22;63419;42.262;12.210;2023-04-24T10:36:48;17.70;99.90
74869;DHT22;63419;42.262;12.210;2023-04-24T10:39:18;17.00;99.90
74869;DHT22;63419;42.262;12.210;2023-04-24T10:41:54;16.40;99.90
74869;DHT22;63419;42.262;12.210;2023-04-24T10:44:24;17.30;99.90
74869;DHT22;63419;42.262;12.210;2023-04-24T10:46:55;17.20;99.90
74869;DHT22;63419;42.262;12.210;2023-04-24T10:49:30;16.80;99.90
74869;DHT22;63419;42.262;12.210;2023-04-24T10:52:02;17.60;99.90
74869;DHT22;63419;42.262;12.210;2023-04-24T10:59:49;18.60;99.90
74869;DHT22;63419;42.262;12.210;2023-04-24T11:02:16;18.30;99.90
74869;DHT22;63419;42.262;12.210;2023-04-24T11:04:44;18.10;99.90
74869;DHT22;63419;42.262;12.210;2023-04-24T11:07:13;18.10;99.90
74869;DHT22;63419;42.262;12.210;2023-04-24T11:09:40;18.70;99.90
74869;DHT22;63419;42.262;12.210;2023-04-24T11:12:11;17.60;99.90
74869;DHT22;63419;42.262;12.210;2023-04-24T11:20:03;18.30;99.90
74869;DHT22;63419;42.262;12.210;2023-04-24T11:22:53;17.70;99.90
74869;DHT22;63419;42.262;12.210;2023-04-24T11:25:24;18.20;99.90
74869;DHT22;63419;42.262;12.210;2023-04-24T11:28:03;17.50;99.90
74869;DHT22;63419;42.262;12.210;2023-04-24T11:30:32;17.90;99.90
74869;DHT22;63419;42.262;12.210;2023-04-24T11:33:04;18.80;99.90
74869;DHT22;63419;42.262;12.210;2023-04-24T11:35:36;17.10;99.90
74869;DHT22;63419;42.262;12.210;2023-04-24T11:38:06;17.70;99.90
74869;DHT22;63419;42.262;12.210;2023-04-24T11:40:51;17.10;99.90
74869;DHT22;63419;42.262;12.210;2023-04-24T11:43:19;17.80;99.90
74869;DHT22;63419;42.262;12.210;2023-04-24T11:45:49;17.80;99.90
74869;DHT22;63419;42.262;12.210;2023-04-24T11:48:20;18.20;99.90
74869;DHT22;63419;42.262;12.210;2023-04-24T11:50:50;17.90;99.90
74869;DHT22;63419;42.262;12.210;2023-04-24T11:53:20;17.90;99.90
74869;DHT22;63419;42.262;12.210;2023-04-24T11:55:48;17.80;99.90
74869;DHT22;63419;42.262;12.210;2023-04-24T11:58:15;18.00;99.90
74869;DHT22;63419;42.262;12.210;2023-04-24T12:00:56;18.60;99.90
74869;DHT22;63419;42.262;12.210;2023-04-24T12:03:23;18.00;99.90
74869;DHT22;63419;42.262;12.210;2023-04-24T12:05:51;17.80;99.90
74869;DHT22;63419;42.262;12.210;2023-04-24T12:08:27;18.50;99.90
74869;DHT22;63419;42.262;12.210;2023-04-24T12:10:55;18.50;99.90
74869;DHT22;63419;42.262;12.210;2023-04-24T12:13:22;18.40;99.90
74869;DHT22;63419;42.262;12.210;2023-04-24T12:15:50;18.40;99.90
74869;DHT22;63419;42.262;12.210;2023-04-24T12:18:17;18.00;99.90
74869;DHT22;63419;42.262;12.210;2023-04-24T12:20:44;17.60;99.90
74869;DHT22;63419;42.262;12.210;2023-04-24T12:23:11;17.70;99.90
74869;DHT22;63419;42.262;12.210;2023-04-24T12:25:38;18.10;99.90
74869;DHT22;63419;42.262;12.210;2023-04-24T12:30:38;18.30;99.90
74869;DHT22;63419;42.262;12.210;2023-04-24T12:33:06;18.30;99.90
74869;DHT22;63419;42.262;12.210;2023-04-24T12:35:33;17.90;99.90
74869;DHT22;63419;42.262;12.210;2023-04-24T12:38:12;18.80;99.90
74869;DHT22;63419;42.262;12.210;2023-04-24T12:40:40;18.10;99.90
74869;DHT22;63419;42.262;12.210;2023-04-24T12:43:18;18.10;99.90
74869;DHT22;63419;42.262;12.210;2023-04-24T12:45:49;18.70;99.90
74869;DHT22;63419;42.262;12.210;2023-04-24T12:48:16;18.20;99.90
74869;DHT22;63419;42.262;12.210;2023-04-24T12:50:43;18.20;99.90
74869;DHT22;63419;42.262;12.210;2023-04-24T12:53:13;18.20;99.90
74869;DHT22;63419;42.262;12.210;2023-04-24T12:55:40;18.30;99.90
74869;DHT22;63419;42.262;12.210;2023-04-24T12:58:07;18.50;99.90
74869;DHT22;63419;42.262;12.210;2023-04-24T13:00:34;18.20;99.90
74869;DHT22;63419;42.262;12.210;2023-04-24T13:03:02;18.90;99.90
74869;DHT22;63419;42.262;12.210;2023-04-24T13:05:30;19.20;99.90
74869;DHT22;63419;42.262;12.210;2023-04-24T13:07:58;19.40;99.90
74869;DHT22;63419;42.262;12.210;2023-04-24T13:10:25;18.70;99.90
74869;DHT22;63419;42.262;12.210;2023-04-24T13:12:52;18.00;99.90
74869;DHT22;63419;42.262;12.210;2023-04-24T13:15:19;18.50;99.90
74869;DHT22;63419;42.262;12.210;2023-04-24T13:17:46;17.90;99.90
74869;DHT22;63419;42.262;12.210;2023-04-24T13:20:13;18.30;99.90
74869;DHT22;63419;42.262;12.210;2023-04-24T13:22:40;17.90;99.90
74869;DHT22;63419;42.262;12.210;2023-04-24T13:25:07;18.60;99.90
74869;DHT22;63419;42.262;12.210;2023-04-24T13:27:37;18.70;99.90
74869;DHT22;63419;42.262;12.210;2023-04-24T13:30:05;18.50;99.90
74869;DHT22;63419;42.262;12.210;2023-04-24T13:32:32;18.40;99.90
74869;DHT22;63419;42.262;12.210;2023-04-24T13:35:00;19.30;99.90
74869;DHT22;63419;42.262;12.210;2023-04-24T13:37:27;18.40;99.90
74869;DHT22;63419;42.262;12.210;2023-04-24T13:39:54;18.50;99.90
74869;DHT22;63419;42.262;12.210;2023-04-24T13:42:21;18.60;99.90
74869;DHT22;63419;42.262;12.210;2023-04-24T13:44:48;18.70;99.90
74869;DHT22;63419;42.262;12.210;2023-04-24T13:47:15;18.10;99.90
74869;DHT22;63419;42.262;12.210;2023-04-24T13:49:42;18.00;99.90
74869;DHT22;63419;42.262;12.210;2023-04-24T13:52:08;18.10;99.90
74869;DHT22;63419;42.262;12.210;2023-04-24T13:54:37;17.30;99.90
74869;DHT22;63419;42.262;12.210;2023-04-24T13:57:04;18.20;99.90
74869;DHT22;63419;42.262;12.210;2023-04-24T13:59:31;18.00;99.90
74869;DHT22;63419;42.262;12.210;2023-04-24T14:01:58;18.10;99.90
74869;DHT22;63419;42.262;12.210;2023-04-24T14:04:25;18.40;99.90
74869;DHT22;63419;42.262;12.210;2023-04-24T14:06:52;18.70;99.90
74869;DHT22;63419;42.262;12.210;2023-04-24T14:09:19;18.40;99.90
74869;DHT22;63419;42.262;12.210;2023-04-24T14:11:46;18.60;99.90
74869;DHT22;63419;42.262;12.210;2023-04-24T14:14:13;18.40;99.90
74869;DHT22;63419;42.262;12.210;2023-04-24T14:16:40;18.70;99.90
74869;DHT22;63419;42.262;12.210;2023-04-24T14:19:07;18.30;99.90
74869;DHT22;63419;42.262;12.210;2023-04-24T14:21:34;17.50;99.90
74869;DHT22;63419;42.262;12.210;2023-04-24T14:24:01;18.40;99.90
74869;DHT22;63419;42.262;12.210;2023-04-24T14:26:28;18.40;99.90
74869;DHT22;63419;42.262;12.210;2023-04-24T14:28:54;18.50;99.90
74869;DHT22;63419;42.262;12.210;2023-04-24T14:31:33;19.00;99.90
74869;DHT22;63419;42.262;12.210;2023-04-24T14:34:00;18.80;99.90
74869;DHT22;63419;42.262;12.210;2023-04-24T14:36:27;19.20;99.90
74869;DHT22;63419;42.262;12.210;2023-04-24T14:38:54;18.80;99.90
74869;DHT22;63419;42.262;12.210;2023-04-24T14:41:21;18.80;99.90
74869;DHT22;63419;42.262;12.210;2023-04-24T14:43:47;18.60;99.90
74869;DHT22;63419;42.262;12.210;2023-04-24T14:46:14;17.80;99.90
74869;DHT22;63419;42.262;12.210;2023-04-24T14:48:42;18.20;99.90
74869;DHT22;63419;42.262;12.210;2023-04-24T14:51:09;18.20;99.90
74869;DHT22;63419;42.262;12.210;2023-04-24T14:53:36;18.30;99.90
74869;DHT22;63419;42.262;12.210;2023-04-24T14:56:03;18.00;99.90
74869;DHT22;63419;42.262;12.210;2023-04-24T14:58:30;18.20;99.90
74869;DHT22;63419;42.262;12.210;2023-04-24T15:00:57;18.30;99.90
74869;DHT22;63419;42.262;12.210;2023-04-24T15:03:24;17.90;99.90
74869;DHT22;63419;42.262;12.210;2023-04-24T15:05:53;17.80;99.90
74869;DHT22;63419;42.262;12.210;2023-04-24T15:08:20;18.30;99.90
74869;DHT22;63419;42.262;12.210;2023-04-24T15:10:48;19.10;99.90
74869;DHT22;63419;42.262;12.210;2023-04-24T15:13:15;18.60;99.90
74869;DHT22;63419;42.262;12.210;2023-04-24T15:15:41;18.10;99.90
74869;DHT22;63419;42.262;12.210;2023-04-24T15:18:09;18.60;99.90
74869;DHT22;63419;42.262;12.210;2023-04-24T15:20:38;18.20;99.90
74869;DHT22;63419;42.262;12.210;2023-04-24T15:23:07;17.80;99.90
74869;DHT22;63419;42.262;12.210;2023-04-24T15:25:34;17.70;99.90
74869;DHT22;63419;42.262;12.210;2023-04-24T15:28:01;17.70;99.90
74869;DHT22;63419;42.262;12.210;2023-04-24T15:30:29;17.80;99.90
74869;DHT22;63419;42.262;12.210;2023-04-24T15:32:56;18.60;99.90
74869;DHT22;63419;42.262;12.210;2023-04-24T15:35:23;19.30;99.90
74869;DHT22;63419;42.262;12.210;2023-04-24T15:37:50;18.30;99.90